createdAt,value
2018-08-23T00:01:27.555Z,96578.70
2018-08-23T00:03:59.070Z,96581.30
2018-08-23T00:06:27.846Z,96582.94
2018-08-23T00:08:58.476Z,96580.10
2018-08-23T00:11:30.176Z,96582.51
2018-08-23T00:13:59.281Z,96581.86
2018-08-23T00:16:35.539Z,96578.36
2018-08-23T00:19:05.203Z,96579.77
2018-08-23T00:21:38.555Z,96576.72
2018-08-23T00:24:10.242Z,96576.83
2018-08-23T00:26:42.372Z,96570.08
2018-08-23T00:29:28.862Z,96567.14
2018-08-23T00:31:59.376Z,96567.80
2018-08-23T00:34:30.375Z,96564.94
2018-08-23T00:37:00.107Z,96558.27
2018-08-23T00:39:30.069Z,96558.27
2018-08-23T00:42:04.249Z,96552.94
2018-08-23T00:44:47.325Z,96555.11
2018-08-23T00:47:16.379Z,96558.40
2018-08-23T00:49:45.377Z,96552.84
2018-08-23T00:52:15.692Z,96551.97
2018-08-23T00:54:44.675Z,96542.59
2018-08-23T00:57:13.700Z,96539.43
2018-08-23T00:59:43.269Z,96530.80
2018-08-23T01:02:12.280Z,96527.12
2018-08-23T01:04:46.511Z,96536.92
2018-08-23T01:07:24.728Z,96540.86
2018-08-23T01:09:53.530Z,96530.16
2018-08-23T01:12:22.593Z,96537.67
2018-08-23T01:14:53.187Z,96536.05
2018-08-23T01:17:22.428Z,96533.10
2018-08-23T01:20:01.422Z,96542.38
2018-08-23T01:22:30.604Z,96537.78
2018-08-23T01:25:01.189Z,96545.61
2018-08-23T01:27:35.431Z,96546.37
2018-08-23T01:30:04.497Z,96547.22
2018-08-23T01:32:34.166Z,96539.77
2018-08-23T01:35:03.816Z,96540.70
2018-08-23T01:37:41.468Z,96536.00
2018-08-23T01:40:11.762Z,96538.27
2018-08-23T01:42:41.897Z,96534.82
2018-08-23T01:45:11.793Z,96526.86
2018-08-23T01:48:11.869Z,96526.52
2018-08-23T01:50:40.825Z,96527.73
2018-08-23T01:53:09.717Z,96524.34
2018-08-23T01:55:38.857Z,96529.66
2018-08-23T01:58:07.928Z,96524.65
2018-08-23T02:00:37.198Z,96527.78
2018-08-23T02:03:06.382Z,96523.52
2018-08-23T02:05:37.948Z,96518.64
2018-08-23T02:08:07.785Z,96520.69
2018-08-23T02:10:36.688Z,96522.17
2018-08-23T02:13:10.650Z,96521.99
2018-08-23T02:15:57.133Z,96520.22
2018-08-23T02:18:25.876Z,96532.28
2018-08-23T02:21:02.717Z,96536.84
2018-08-23T02:23:31.776Z,96536.53
2018-08-23T02:26:00.777Z,96531.84
2018-08-23T02:28:29.772Z,96534.67
2018-08-23T02:30:58.757Z,96535.45
2018-08-23T02:33:27.794Z,96537.50
2018-08-23T02:36:04.292Z,96539.14
2018-08-23T02:38:33.528Z,96536.10
2018-08-23T02:41:02.645Z,96541.77
2018-08-23T02:43:31.700Z,96537.33
2018-08-23T02:46:03.257Z,96532.34
2018-08-23T02:48:33.876Z,96534.88
2018-08-23T02:51:02.894Z,96524.98
2018-08-23T02:53:36.363Z,96523.25
2018-08-23T02:56:09.536Z,96516.03
2018-08-23T02:58:50.764Z,96523.21
2018-08-23T03:01:19.969Z,96511.98
2018-08-23T03:04:01.601Z,96517.52
2018-08-23T03:06:34.693Z,96512.28
2018-08-23T03:09:04.031Z,96511.63
2018-08-23T03:11:34.983Z,96510.28
2018-08-23T03:14:04.243Z,96503.89
2018-08-23T03:17:48.329Z,96508.67
2018-08-23T03:20:19.600Z,96502.23
2018-08-23T03:22:53.567Z,96508.20
2018-08-23T03:25:23.644Z,96507.88
2018-08-23T03:27:53.810Z,96494.92
2018-08-23T03:30:23.573Z,96510.05
2018-08-23T03:32:52.732Z,96515.69
2018-08-23T03:35:21.496Z,96514.55
2018-08-23T03:37:50.241Z,96506.06
2018-08-23T03:40:18.972Z,96508.95
2018-08-23T03:42:47.733Z,96512.31
2018-08-23T03:45:30.853Z,96512.87
2018-08-23T03:47:59.596Z,96506.62
2018-08-23T03:50:28.518Z,96504.33
2018-08-23T03:52:57.548Z,96514.67
2018-08-23T03:55:26.919Z,96510.19
2018-08-23T03:58:02.630Z,96510.20
2018-08-23T04:00:36.812Z,96513.15
2018-08-23T04:03:14.036Z,96520.42
2018-08-23T04:05:42.830Z,96516.73
2018-08-23T04:08:11.894Z,96518.75
2018-08-23T04:10:40.792Z,96511.78
2018-08-23T04:13:09.884Z,96515.34
2018-08-23T04:15:41.051Z,96511.07
2018-08-23T04:18:17.268Z,96506.91
2018-08-23T04:20:53.868Z,96510.84
2018-08-23T04:23:22.842Z,96513.14
2018-08-23T04:25:51.936Z,96515.67
2018-08-23T04:28:21.040Z,96515.55
2018-08-23T04:30:50.162Z,96512.64
2018-08-23T04:33:18.908Z,96528.73
2018-08-23T04:35:47.664Z,96522.91
2018-08-23T04:38:16.404Z,96519.34
2018-08-23T04:40:58.364Z,96518.31
2018-08-23T04:43:27.112Z,96517.14
2018-08-23T04:45:55.865Z,96515.76
2018-08-23T04:48:24.668Z,96512.51
2018-08-23T04:50:53.737Z,96517.45
2018-08-23T04:53:22.601Z,96512.06
2018-08-23T04:55:52.688Z,96513.61
2018-08-23T04:58:21.500Z,96515.27
2018-08-23T05:00:50.711Z,96514.40
2018-08-23T05:03:19.505Z,96512.84
2018-08-23T05:05:48.264Z,96514.09
2018-08-23T05:08:17.086Z,96514.67
2018-08-23T05:10:45.929Z,96511.72
2018-08-23T05:13:15.208Z,96514.55
2018-08-23T05:15:44.257Z,96515.67
2018-08-23T05:18:15.674Z,96519.08
2018-08-23T05:20:48.368Z,96514.50
2018-08-23T05:23:20.631Z,96519.86
2018-08-23T05:25:49.714Z,96517.25
2018-08-23T05:28:20.020Z,96518.65
2018-08-23T05:30:50.879Z,96515.08
2018-08-23T05:33:21.933Z,96509.89
2018-08-23T05:35:51.072Z,96511.20
2018-08-23T05:38:20.641Z,96514.94
2018-08-23T05:41:00.435Z,96515.41
2018-08-23T05:43:29.323Z,96511.52
2018-08-23T05:45:58.412Z,96517.59
2018-08-23T05:48:30.270Z,96517.71
2018-08-23T05:51:05.175Z,96518.92
2018-08-23T05:53:38.548Z,96519.94
2018-08-23T05:56:08.113Z,96513.26
2018-08-23T05:58:36.980Z,96513.04
2018-08-23T06:01:06.094Z,96509.48
2018-08-23T06:03:37.152Z,96515.83
2018-08-23T06:06:06.332Z,96518.13
2018-08-23T06:08:35.306Z,96516.30
2018-08-23T06:11:08.025Z,96517.17
2018-08-23T06:13:36.860Z,96519.02
2018-08-23T06:16:05.676Z,96514.78
2018-08-23T06:18:34.427Z,96516.22
2018-08-23T06:21:03.205Z,96515.02
2018-08-23T06:23:40.256Z,96510.83
2018-08-23T06:26:09.021Z,96510.08
2018-08-23T06:28:37.757Z,96514.50
2018-08-23T06:31:06.540Z,96518.33
2018-08-23T06:33:40.978Z,96515.14
2018-08-23T06:36:10.684Z,96512.45
2018-08-23T06:38:40.661Z,96514.16
2018-08-23T06:41:09.691Z,96507.74
2018-08-23T06:43:38.448Z,96510.11
2018-08-23T06:46:07.285Z,96510.02
2018-08-23T06:48:36.014Z,96514.69
2018-08-23T06:51:05.619Z,96514.59
2018-08-23T06:53:44.770Z,96512.94
2018-08-23T06:56:14.107Z,96516.33
2018-08-23T06:58:43.270Z,96510.90
2018-08-23T07:01:27.076Z,96522.81
2018-08-23T07:04:01.830Z,96515.93
2018-08-23T07:06:31.269Z,96523.59
2018-08-23T07:09:00.446Z,96528.87
2018-08-23T07:11:29.250Z,96524.02
2018-08-23T07:14:03.232Z,96523.34
2018-08-23T07:16:32.256Z,96528.61
2018-08-23T07:19:04.169Z,96533.28
2018-08-23T07:21:33.145Z,96535.06
2018-08-23T07:24:02.314Z,96531.77
2018-08-23T07:26:31.061Z,96532.40
2018-08-23T07:28:59.856Z,96529.36
2018-08-23T07:31:28.620Z,96523.02
2018-08-23T07:33:57.378Z,96527.47
2018-08-23T07:36:28.561Z,96517.87
2018-08-23T07:38:57.792Z,96523.13
2018-08-23T07:41:26.784Z,96522.72
2018-08-23T07:43:55.546Z,96529.67
2018-08-23T07:46:24.296Z,96531.72
2018-08-23T07:48:53.032Z,96534.41
2018-08-23T07:51:24.511Z,96529.47
2018-08-23T07:53:53.977Z,96521.42
2018-08-23T07:56:28.283Z,96519.80
2018-08-23T07:58:58.000Z,96522.80
2018-08-23T08:01:28.453Z,96522.67
2018-08-23T08:03:58.036Z,96525.63
2018-08-23T08:06:27.663Z,96526.05
2018-08-23T08:08:59.948Z,96530.05
2018-08-23T08:11:34.532Z,96528.13
2018-08-23T08:14:13.526Z,96537.43
2018-08-23T08:16:42.347Z,96537.44
2018-08-23T08:19:11.136Z,96537.39
2018-08-23T08:21:39.959Z,96538.88
2018-08-23T08:24:08.708Z,96540.58
2018-08-23T08:26:37.461Z,96543.19
2018-08-23T08:29:06.242Z,96546.97
2018-08-23T08:31:34.984Z,96547.03
2018-08-23T08:34:03.725Z,96550.53
2018-08-23T08:36:33.404Z,96548.07
2018-08-23T08:39:03.503Z,96547.11
2018-08-23T08:41:35.263Z,96552.70
2018-08-23T08:44:04.112Z,96553.12
2018-08-23T08:46:32.857Z,96555.94
2018-08-23T08:49:01.997Z,96559.61
2018-08-23T08:51:31.948Z,96564.05
2018-08-23T08:54:02.288Z,96570.89
2018-08-23T08:56:48.390Z,96572.02
2018-08-23T08:59:17.149Z,96580.73
2018-08-23T09:01:45.895Z,96586.25
2018-08-23T09:04:19.765Z,96584.02
2018-08-23T09:06:48.649Z,96589.28
2018-08-23T09:09:27.583Z,96596.34
2018-08-23T09:11:59.167Z,96601.77
2018-08-23T09:14:27.903Z,96598.94
2018-08-23T09:16:56.681Z,96599.44
2018-08-23T09:20:28.475Z,96600.05
2018-08-23T09:22:57.177Z,96598.66
2018-08-23T09:25:28.617Z,96601.56
2018-08-23T09:27:57.348Z,96601.81
2018-08-23T09:30:27.940Z,96599.13
2018-08-23T09:32:57.042Z,96603.11
2018-08-23T09:35:32.048Z,96602.09
2018-08-23T09:38:02.261Z,96604.32
2018-08-23T09:40:31.121Z,96602.14
2018-08-23T09:43:03.342Z,96608.42
2018-08-23T09:45:33.344Z,96614.95
2018-08-23T09:48:02.107Z,96610.67
2018-08-23T09:50:30.917Z,96602.79
2018-08-23T09:52:59.711Z,96601.66
2018-08-23T09:55:32.792Z,96599.72
2018-08-23T09:58:01.616Z,96598.81
2018-08-23T10:00:35.608Z,96586.60
2018-08-23T10:03:09.473Z,96582.51
2018-08-23T10:05:48.464Z,96581.95
2018-08-23T10:08:22.910Z,96584.88
2018-08-23T10:10:56.813Z,96574.62
2018-08-23T10:13:30.699Z,96576.48
2018-08-23T10:16:04.624Z,96573.61
2018-08-23T10:18:38.525Z,96569.49
2018-08-23T10:21:07.285Z,96570.28
2018-08-23T10:23:36.044Z,96560.32
2018-08-23T10:26:10.120Z,96560.11
2018-08-23T10:28:44.009Z,96551.48
2018-08-23T10:31:12.809Z,96552.05
2018-08-23T10:33:41.539Z,96554.05
2018-08-23T10:36:10.292Z,96554.28
2018-08-23T10:38:39.556Z,96550.60
2018-08-23T10:41:08.348Z,96546.70
2018-08-23T10:43:42.284Z,96542.55
2018-08-23T10:46:11.060Z,96546.70
2018-08-23T10:48:39.808Z,96545.45
2018-08-23T10:51:08.718Z,96545.89
2018-08-23T10:53:37.493Z,96531.16
2018-08-23T10:56:06.306Z,96534.16
2018-08-23T10:58:35.057Z,96526.22
2018-08-23T11:01:03.834Z,96528.78
2018-08-23T11:03:32.588Z,96527.39
2018-08-23T11:06:01.363Z,96519.86
2018-08-23T11:08:32.981Z,96520.13
2018-08-23T11:11:07.032Z,96518.48
2018-08-23T11:13:40.974Z,96508.53
2018-08-23T11:16:14.902Z,96509.59
2018-08-23T11:18:48.849Z,96508.83
2018-08-23T11:21:18.146Z,96511.52
2018-08-23T11:23:47.400Z,96503.34
2018-08-23T11:26:19.700Z,96497.32
2018-08-23T11:28:49.113Z,96503.22
2018-08-23T11:31:23.198Z,96493.57
2018-08-23T11:33:52.114Z,96490.47
2018-08-23T11:36:20.865Z,96489.86
2018-08-23T11:38:49.864Z,96485.32
2018-08-23T11:41:19.054Z,96477.19
2018-08-23T11:43:47.868Z,96470.86
2018-08-23T11:46:17.863Z,96468.81
2018-08-23T11:48:47.197Z,96464.87
2018-08-23T11:51:16.776Z,96471.77
2018-08-23T11:53:46.087Z,96455.95
2018-08-23T11:56:14.860Z,96445.87
2018-08-23T11:58:43.872Z,96441.75
2018-08-23T12:01:14.005Z,96433.34
2018-08-23T12:03:43.073Z,96428.14
2018-08-23T12:06:12.796Z,96416.33
2018-08-23T12:08:41.984Z,96412.57
2018-08-23T12:11:10.822Z,96408.39
2018-08-23T12:13:39.755Z,96410.02
2018-08-23T12:16:09.681Z,96400.06
2018-08-23T12:18:39.216Z,96406.11
2018-08-23T12:21:08.036Z,96414.62
2018-08-23T12:23:36.888Z,96413.08
2018-08-23T12:26:05.747Z,96422.91
2018-08-23T12:28:39.843Z,96423.02
2018-08-23T12:31:08.622Z,96419.59
2018-08-23T12:33:37.372Z,96423.17
2018-08-23T12:36:08.360Z,96427.59
2018-08-23T12:38:42.232Z,96426.35
2018-08-23T12:41:16.116Z,96431.77
2018-08-23T12:43:51.377Z,96433.13
2018-08-23T12:46:20.194Z,96430.48
2018-08-23T12:48:48.984Z,96430.60
2018-08-23T12:51:17.820Z,96427.50
2018-08-23T12:53:46.565Z,96413.88
2018-08-23T12:56:15.400Z,96409.63
2018-08-23T12:58:44.189Z,96406.75
2018-08-23T13:01:12.980Z,96410.76
2018-08-23T13:03:41.778Z,96408.56
2018-08-23T13:06:10.590Z,96402.80
2018-08-23T13:08:39.367Z,96400.02
2018-08-23T13:11:08.199Z,96381.14
2018-08-23T13:13:36.882Z,96371.25
2018-08-23T13:16:05.892Z,96370.10
2018-08-23T13:18:34.762Z,96373.39
2018-08-23T13:21:03.597Z,96379.31
2018-08-23T13:23:32.402Z,96381.42
2018-08-23T13:26:01.185Z,96371.21
2018-08-23T13:28:29.951Z,96369.45
2018-08-23T13:30:58.717Z,96373.95
2018-08-23T13:33:27.694Z,96369.98
2018-08-23T13:35:56.456Z,96363.47
2018-08-23T13:38:25.196Z,96368.98
2018-08-23T13:40:54.015Z,96370.50
2018-08-23T13:43:22.834Z,96377.35
2018-08-23T13:45:51.757Z,96371.70
2018-08-23T13:48:20.537Z,96377.23
2018-08-23T13:50:49.315Z,96381.87
2018-08-23T13:53:18.092Z,96374.50
2018-08-23T13:55:46.840Z,96370.90
2018-08-23T13:58:15.688Z,96365.81
2018-08-23T14:00:44.465Z,96364.11
2018-08-23T14:03:13.236Z,96369.97
2018-08-23T14:05:42.401Z,96370.16
2018-08-23T14:08:11.176Z,96370.55
2018-08-23T14:10:40.072Z,96374.28
2018-08-23T14:13:08.945Z,96362.89
2018-08-23T14:15:42.953Z,96359.33
2018-08-23T14:18:11.724Z,96363.46
2018-08-23T14:20:40.653Z,96362.14
2018-08-23T14:23:09.408Z,96361.67
2018-08-23T14:25:38.147Z,96371.16
2018-08-23T14:28:07.217Z,96368.25
2018-08-23T14:30:35.965Z,96365.39
2018-08-23T14:33:04.736Z,96362.53
2018-08-23T14:35:33.589Z,96359.66
2018-08-23T14:38:02.384Z,96372.03
2018-08-23T14:40:31.167Z,96372.00
2018-08-23T14:42:59.930Z,96378.82
2018-08-23T14:45:29.733Z,96383.89
2018-08-23T14:48:03.806Z,96384.66
2018-08-23T14:50:33.316Z,96386.42
2018-08-23T14:53:02.089Z,96387.73
2018-08-23T14:55:35.937Z,96382.61
2018-08-23T14:58:04.742Z,96395.57
2018-08-23T15:00:33.576Z,96396.80
2018-08-23T15:03:02.497Z,96391.03
2018-08-23T15:05:31.279Z,96390.25
2018-08-23T15:08:00.040Z,96384.78
2018-08-23T15:10:28.860Z,96375.06
2018-08-23T15:12:57.735Z,96370.91
2018-08-23T15:15:31.601Z,96366.27
2018-08-23T15:18:00.344Z,96368.03
2018-08-23T15:20:29.114Z,96360.17
2018-08-23T15:22:57.845Z,96361.07
2018-08-23T15:25:26.580Z,96366.02
2018-08-23T15:27:55.408Z,96364.80
2018-08-23T15:30:24.164Z,96351.76
2018-08-23T15:32:52.931Z,96349.34
2018-08-23T15:35:21.692Z,96345.17
2018-08-23T15:37:50.432Z,96327.14
2018-08-23T15:40:19.947Z,96337.78
2018-08-23T15:42:48.690Z,96335.84
2018-08-23T15:45:17.946Z,96337.03
2018-08-23T15:47:46.747Z,96334.29
2018-08-23T15:50:15.549Z,96339.61
2018-08-23T15:52:44.380Z,96337.35
2018-08-23T15:55:13.324Z,96331.00
2018-08-23T15:57:42.288Z,96330.27
2018-08-23T16:00:11.033Z,96329.58
2018-08-23T16:02:39.824Z,96322.39
2018-08-23T16:05:08.632Z,96315.95
2018-08-23T16:07:37.401Z,96315.36
2018-08-23T16:10:07.888Z,96315.88
2018-08-23T16:12:36.828Z,96310.63
2018-08-23T16:15:10.732Z,96312.30
2018-08-23T16:17:44.588Z,96308.62
2018-08-23T16:20:18.606Z,96316.65
2018-08-23T16:22:47.390Z,96313.31
2018-08-23T16:25:16.257Z,96319.23
2018-08-23T16:27:45.011Z,96308.88
2018-08-23T16:30:13.986Z,96302.86
2018-08-23T16:32:43.008Z,96297.89
2018-08-23T16:35:11.750Z,96297.89
2018-08-23T16:37:40.722Z,96290.77
2018-08-23T16:40:09.494Z,96290.28
2018-08-23T16:42:38.246Z,96286.02
2018-08-23T16:45:07.074Z,96288.35
2018-08-23T16:47:35.833Z,96291.18
2018-08-23T16:50:04.972Z,96294.29
2018-08-23T16:52:33.886Z,96290.16
2018-08-23T16:55:02.920Z,96289.30
2018-08-23T16:57:31.684Z,96293.03
2018-08-23T17:00:00.448Z,96291.59
2018-08-23T17:02:29.255Z,96285.44
2018-08-23T17:04:58.069Z,96276.34
2018-08-23T17:07:26.897Z,96285.03
2018-08-23T17:09:55.669Z,96287.25
2018-08-23T17:12:24.565Z,96287.20
2018-08-23T17:14:53.296Z,96293.83
2018-08-23T17:17:29.853Z,96295.27
2018-08-23T17:19:58.771Z,96295.40
2018-08-23T17:22:27.698Z,96293.03
2018-08-23T17:24:56.562Z,96286.89
2018-08-23T17:27:26.909Z,96285.86
2018-08-23T17:29:55.781Z,96283.72
2018-08-23T17:32:26.445Z,96281.83
2018-08-23T17:34:55.545Z,96278.25
2018-08-23T17:37:25.857Z,96268.78
2018-08-23T17:39:54.959Z,96262.89
2018-08-23T17:42:27.917Z,96257.14
2018-08-23T17:44:56.703Z,96256.30
2018-08-23T17:47:25.554Z,96264.22
2018-08-23T17:49:54.595Z,96261.83
2018-08-23T17:52:23.362Z,96254.23
2018-08-23T17:54:52.252Z,96255.48
2018-08-23T17:57:20.996Z,96260.53
2018-08-23T17:59:49.887Z,96266.70
2018-08-23T18:02:18.741Z,96275.61
2018-08-23T18:04:47.748Z,96285.17
2018-08-23T18:07:16.626Z,96288.06
2018-08-23T18:09:45.368Z,96283.59
2018-08-23T18:12:14.392Z,96274.19
2018-08-23T18:14:43.328Z,96270.38
2018-08-23T18:17:12.069Z,96274.41
2018-08-23T18:19:40.836Z,96277.19
2018-08-23T18:22:09.624Z,96279.23
2018-08-23T18:24:38.484Z,96280.92
2018-08-23T18:27:07.461Z,96274.80
2018-08-23T18:29:36.349Z,96279.23
2018-08-23T18:32:05.165Z,96283.63
2018-08-23T18:34:33.860Z,96283.95
2018-08-23T18:37:02.599Z,96287.77
2018-08-23T18:39:31.606Z,96284.05
2018-08-23T18:42:00.344Z,96291.81
2018-08-23T18:44:29.498Z,96291.55
2018-08-23T18:46:58.272Z,96291.23
2018-08-23T18:49:27.236Z,96294.59
2018-08-23T18:51:56.394Z,96299.19
2018-08-23T18:54:25.305Z,96300.29
2018-08-23T18:56:54.357Z,96301.81
2018-08-23T18:59:23.089Z,96301.61
2018-08-23T19:01:51.840Z,96307.07
2018-08-23T19:04:20.596Z,96314.05
2018-08-23T19:06:49.373Z,96312.98
2018-08-23T19:09:18.252Z,96315.70
2018-08-23T19:11:47.067Z,96318.11
2018-08-23T19:14:15.869Z,96315.35
2018-08-23T19:16:49.828Z,96320.84
2018-08-23T19:19:18.574Z,96323.71
2018-08-23T19:21:47.393Z,96314.34
2018-08-23T19:24:16.184Z,96310.56
2018-08-23T19:26:44.935Z,96326.58
2018-08-23T19:29:13.740Z,96323.11
2018-08-23T19:31:42.575Z,96324.95
2018-08-23T19:34:11.328Z,96324.84
2018-08-23T19:36:40.488Z,96320.81
2018-08-23T19:39:11.133Z,96325.52
2018-08-23T19:41:40.208Z,96328.38
2018-08-23T19:44:09.250Z,96332.44
2018-08-23T19:46:43.259Z,96322.84
2018-08-23T19:49:17.209Z,96327.31
2018-08-23T19:51:45.984Z,96323.81
2018-08-23T19:54:14.790Z,96318.27
2018-08-23T19:56:43.544Z,96329.25
2018-08-23T19:59:12.329Z,96335.45
2018-08-23T20:01:41.065Z,96333.81
2018-08-23T20:04:09.840Z,96328.48
2018-08-23T20:06:38.670Z,96326.86
2018-08-23T20:09:08.924Z,96331.01
2018-08-23T20:11:37.685Z,96331.65
2018-08-23T20:14:06.445Z,96336.34
2018-08-23T20:16:35.223Z,96336.91
2018-08-23T20:19:03.971Z,96341.13
2018-08-23T20:21:32.737Z,96339.82
2018-08-23T20:24:01.572Z,96339.48
2018-08-23T20:26:30.348Z,96346.90
2018-08-23T20:28:59.138Z,96346.44
2018-08-23T20:31:27.909Z,96345.36
2018-08-23T20:33:56.657Z,96338.62
2018-08-23T20:36:25.400Z,96344.92
2018-08-23T20:38:54.375Z,96350.16
2018-08-23T20:41:23.226Z,96350.59
2018-08-23T20:43:52.148Z,96352.32
2018-08-23T20:46:20.898Z,96346.44
2018-08-23T20:48:49.753Z,96344.07
2018-08-23T20:51:18.601Z,96338.19
2018-08-23T20:53:47.569Z,96352.77
2018-08-23T20:56:16.683Z,96361.48
2018-08-23T20:58:45.463Z,96367.45
2018-08-23T21:01:14.236Z,96367.69
2018-08-23T21:03:43.179Z,96369.42
2018-08-23T21:06:11.921Z,96369.11
2018-08-23T21:08:40.937Z,96356.47
2018-08-23T21:11:09.761Z,96353.20
2018-08-23T21:13:38.683Z,96353.09
2018-08-23T21:16:09.084Z,96358.88
2018-08-23T21:18:38.002Z,96361.35
2018-08-23T21:21:06.895Z,96358.00
2018-08-23T21:23:36.044Z,96359.95
2018-08-23T21:26:04.865Z,96366.05
2018-08-23T21:28:35.145Z,96367.36
2018-08-23T21:31:04.372Z,96364.84
2018-08-23T21:33:33.304Z,96366.92
2018-08-23T21:36:02.287Z,96365.73
2018-08-23T21:38:31.168Z,96376.07
2018-08-23T21:41:00.193Z,96373.87
2018-08-23T21:43:28.953Z,96375.17
2018-08-23T21:45:57.730Z,96377.16
2018-08-23T21:48:26.503Z,96378.13
2018-08-23T21:50:55.530Z,96375.64
2018-08-23T21:53:27.559Z,96376.73
2018-08-23T21:55:56.389Z,96377.59
2018-08-23T21:58:25.462Z,96380.42
2018-08-23T22:01:00.177Z,96383.79
2018-08-23T22:03:28.936Z,96383.69
2018-08-23T22:05:57.747Z,96375.30
2018-08-23T22:08:26.554Z,96370.95
2018-08-23T22:10:55.446Z,96375.51
2018-08-23T22:13:24.277Z,96379.34
2018-08-23T22:15:53.184Z,96376.73
2018-08-23T22:18:21.994Z,96370.30
2018-08-23T22:20:51.048Z,96368.22
2018-08-23T22:23:19.886Z,96374.44
2018-08-23T22:25:48.834Z,96369.73
2018-08-23T22:28:17.834Z,96375.20
2018-08-23T22:30:47.084Z,96371.60
2018-08-23T22:33:16.025Z,96368.00
2018-08-23T22:35:44.813Z,96371.70
2018-08-23T22:38:13.652Z,96359.73
2018-08-23T22:40:42.415Z,96358.42
2018-08-23T22:43:11.202Z,96362.44
2018-08-23T22:45:41.775Z,96360.94
2018-08-23T22:48:10.606Z,96352.11
2018-08-23T22:50:39.392Z,96339.59
2018-08-23T22:53:09.735Z,96335.23
2018-08-23T22:55:38.593Z,96324.03
2018-08-23T22:58:08.318Z,96332.83
2018-08-23T23:00:41.168Z,96334.47
2018-08-23T23:03:15.854Z,96327.29
2018-08-23T23:05:46.154Z,96335.02
2018-08-23T23:08:16.649Z,96320.73
2018-08-23T23:10:45.854Z,96314.09
2018-08-23T23:13:14.629Z,96310.17
2018-08-23T23:15:44.498Z,96303.98
2018-08-23T23:18:13.292Z,96295.92
2018-08-23T23:20:42.103Z,96288.56
2018-08-23T23:23:12.438Z,96287.80
2018-08-23T23:25:41.332Z,96290.83
2018-08-23T23:28:12.206Z,96293.99
2018-08-23T23:30:41.329Z,96295.82
2018-08-23T23:33:10.107Z,96297.03
2018-08-23T23:35:38.910Z,96295.27
2018-08-23T23:38:07.679Z,96293.95
2018-08-23T23:40:37.774Z,96289.83
2018-08-23T23:43:08.542Z,96286.78
2018-08-23T23:45:38.999Z,96276.90
2018-08-23T23:48:08.570Z,96268.31
2018-08-23T23:50:39.099Z,96279.93
2018-08-23T23:53:08.080Z,96280.26
2018-08-23T23:55:37.461Z,96277.43
2018-08-23T23:58:06.589Z,96272.88
